Flight Track Log - Related Links

Times and Time Zones

All times are in EDT time to prevent confusion due to time zone crossing. See the JAL110 flight status page for this flight to view local times or setup timezone preferences in your user account.

Time Position Orientation Groundspeed Altitude Reporting Facility
EDT Latitude Longitude Course Direction KTS MPH feet Rate Location/Type
Wed 08:41:00 PM 34.8499 135.7691 77° East  Level Estimated
Wed 08:42:00 PM 34.8712 135.8795 77° East  Level Estimated
Wed 08:43:00 PM 34.8924 135.9899 77° East  Level Estimated
Wed 08:44:00 PM 34.9134 136.1004 77° East  Level Estimated
Wed 08:45:00 PM 34.9344 136.2110 77° East  Level Estimated
Wed 08:46:00 PM 34.9553 136.3216 77° East  Level Estimated
Wed 08:47:00 PM 34.9761 136.4323 77° East  Level Estimated
Wed 08:48:00 PM 34.9967 136.5430 77° East  Level Estimated
Wed 08:49:00 PM 35.0173 136.6538 77° East  Level Estimated
Wed 08:50:00 PM 35.0383 136.7676 77° East  Level Estimated
Wed 08:51:00 PM 35.0592 136.8814 77° East  Level Estimated
Wed 08:52:00 PM 35.0800 136.9953 77° East  Level Estimated
Wed 08:53:00 PM 35.1007 137.1092 77° East  Level Estimated
Wed 08:54:00 PM 35.1213 137.2232 78° East  Level Estimated
Wed 08:55:00 PM 35.1418 137.3372 78° East  Level Estimated
Wed 08:56:00 PM 35.1621 137.4514 78° East  Level Estimated
Wed 08:57:00 PM 35.1824 137.5655 78° East  Level Estimated
Wed 08:58:00 PM 35.2025 137.6797 78° East  Level Estimated
Wed 08:59:00 PM 35.2226 137.7940 78° East  Level Estimated
Wed 09:00:00 PM 35.2425 137.9084 78° East  Level Estimated
Wed 09:01:00 PM 35.2624 138.0228 78° East  Level Estimated
Wed 09:02:00 PM 35.2821 138.1372 78° East  Level Estimated
Wed 09:03:00 PM 35.3017 138.2517 78° East  Level Estimated
Wed 09:04:00 PM 35.3212 138.3663 78° East  Level Estimated
Wed 09:05:00 PM 35.3406 138.4809 78° East  Level Estimated
Wed 09:06:00 PM 35.3599 138.5956 78° East  Level Estimated
Wed 09:07:00 PM 35.3791 138.7103 78° East  Level Estimated
Wed 09:08:00 PM 35.3982 138.8250 78° East  Level Estimated
Wed 09:09:00 PM 35.4162 138.9341 79° East  Level Estimated
Wed 09:10:00 PM 35.4341 139.0433 79° East  Level Estimated
Wed 09:11:00 PM 35.4519 139.1525 79° East  Level Estimated
Wed 09:12:00 PM 35.4697 139.2617 79° East  Level Estimated
Wed 09:13:00 PM 35.4873 139.3710 79° East  Level Estimated
Wed 09:14:00 PM 35.5048 139.4803 79° East  Level Estimated
Wed 09:15:00 PM 35.5222 139.5897 79° East  Level Estimated
Wed 09:16:00 PM 35.5396 139.6991 79° East  Level Estimated
Wed 09:17:00 PM 35.5523 139.7797 79° East  Level Estimated
Wed 09:18:00 PM 35.5523 139.7797 122° Southeast  Level Estimated
Wed 09:19:00 PM 35.5523 139.7797 122° Southeast  Level Estimated
Wed 09:20:00 PM 35.5523 139.7797 122° Southeast  Level Estimated
Wed 09:21:00 PM 35.5523 139.7797 122° Southeast  Level Estimated
Wed 09:22:00 PM 35.5523 139.7797 122° Southeast  Level Estimated
Wed 09:23:00 PM 35.5523 139.7797 122° Southeast  Level Estimated

Login

Don't have an account? Register now (free) for customized features, flight alerts, and more!